ADDS METAR Data INFO
IDs: Format: Raw Decoded Include TAF

Data at: 0838 UTC 27 Jun 2017

KMRF 270756Z AUTO 33007KT 10SM CLR 16/13 A3021 RMK AO2 SLP172 T01610128
KMRF 270656Z AUTO 03006KT 10SM CLR 18/13 A3021 RMK AO2 SLP170 T01830133 402780150
KMRF 270556Z AUTO 09004KT 10SM CLR 19/13 A3022 RMK AO2 SLP174 6//// T01940133 10244 20194 51008
KMRF 270456Z AUTO 11007KT 10SM BKN060 BKN075 21/14 A3022 RMK AO2 SLP173 T02110144
KMRF 270356Z AUTO 03005KT 10SM BKN060 21/14 A3021 RMK AO2 SLP171 T02060139
KMRF 270256Z AUTO 32005KT 10SM CLR 21/14 A3019 RMK AO2 SLP172 6//// T02060144 53001
KMRF 270156Z AUTO 28003KT 10SM CLR 23/16 A3018 RMK AO2 SLP162 T02280156
KMRF 270056Z AUTO 00000KT 10SM CLR 24/16 A3018 RMK AO2 SLP160 T02440156
KMRF 262356Z AUTO 27005KT 10SM CLR 24/17 A3019 RMK AO2 SLP170 60000 T02390167 10278 20228 56009
KMRF 262256Z AUTO 12007KT 10SM FEW055 BKN075 24/16 A3020 RMK AO2 LTG DSNT W AND NW TSE35RAE08 SLP174 P0000 T02390156
KMRF 262246Z AUTO 15005KT 10SM FEW050 SCT060 BKN075 23/16 A3020 RMK AO2 LTG DSNT NW TSE35RAE08 P0000
KMRF 262156Z AUTO 14008KT 10SM VCTS -RA FEW029 BKN055 23/17 A3022 RMK AO2 LTG DSNT W AND NW TSE07B09E27B53RAB28 SLP183 P0000 T02280167
KMRF 262138Z AUTO 15009KT 10SM -RA BKN060 23/16 A3021 RMK AO2 LTG DSNT S-NW TSE07B09E27RAB28 P0000
KMRF 262109Z AUTO 14014KT 10SM VCTS BKN055 BKN070 24/16 A3021 RMK AO2 LTG DSNT SE AND S AND NW TSE07B09
KMRF 262056Z AUTO 16011KT 10SM VCTS FEW050 BKN065 BKN095 27/14 A3021 RMK AO2 LTG DSNT SE AND S AND NW TSE07B09E23B25 SLP175 T02670144 56010
KMRF 262025Z AUTO 20012KT 10SM VCTS OVC055 27/15 A3022 RMK AO2 LTG DSNT ALQDS TSE07B09E23B25
KMRF 262009Z AUTO 18009KT 10SM VCTS BKN055 BKN070 27/14 A3022 RMK AO2 LTG DSNT ALQDS TSE07B09
KMRF 261956Z AUTO 17008KT 10SM VCTS FEW050 BKN060 BKN095 27/14 A3023 RMK AO2 LTG DSNT SW AND W TSB38E53B54 SLP177 T02720144
KMRF 261954Z AUTO 16006KT 10SM VCTS BKN055 BKN070 BKN095 27/14 A3023 RMK AO2 LTG DSNT SW AND W TSB38E53B54
KMRF 261949Z AUTO VRB05KT 10SM TS BKN055 OVC070 28/14 A3023 RMK AO2 LTG DSNT SW AND W TSB38
KMRF 261856Z AUTO VRB06KT 10SM BKN050 BKN060 BKN070 27/15 A3025 RMK AO2 LTG DSNT SW SLP184 T02720150
KMRF 261756Z AUTO 16006KT 10SM BKN041 OVC110 26/15 A3028 RMK AO2 SLP198 T02560150 10261 20156 58010
KMRF 261656Z AUTO 00000KT 10SM BKN110 24/16 A3030 RMK AO2 SLP203 T02390156
KMRF 261556Z AUTO 02006KT 10SM FEW025 23/15 A3032 RMK AO2 SLP206 T02330150
KMRF 261456Z AUTO 05010KT 10SM CLR 19/16 A3032 RMK AO2 SLP210 T01940156 52008
KMRF 261356Z AUTO 06011KT 10SM CLR 21/14 A3031 RMK AO2 SLP204 T02060144
KMRF 261256Z AUTO 03008KT 10SM CLR 20/14 A3030 RMK AO2 SLP200 T02000139
KMRF 261156Z AUTO 06005KT 10SM CLR 16/11 A3029 RMK AO2 SLP201 7//// T01560111 10189 20150 53006
KMRF 261056Z AUTO 30003KT 10SM CLR 16/12 A3028 RMK AO2 SLP195 T01610122
KMRF 260956Z AUTO 33003KT 10SM BKN070 16/12 A3027 RMK AO2 SLP192 T01610117
KMRF 260856Z AUTO 34007KT 10SM CLR 17/12 A3027 RMK AO2 SLP189 T01670117 55004
KMRF 260756Z AUTO 03004KT 10SM CLR 17/12 A3027 RMK AO2 SLP189 T01670117
KMRF 260656Z AUTO 27004KT 10SM CLR 18/12 A3028 RMK AO2 SLP196 T01780117 403110156 TSNO
KMRF 260556Z AUTO 34003KT 10SM CLR 19/12 A3029 RMK AO2 SLP197 6//// T01890117 10283 20189 51013
KMRF 260456Z AUTO 01003KT 10SM CLR 21/12 A3028 RMK AO2 SLP195 T02060122
KMRF 260356Z AUTO 09009KT 10SM CLR 23/13 A3027 RMK AO2 SLP188 T02280128
KMRF 260256Z AUTO 11011KT 10SM CLR 24/13 A3024 RMK AO2 SLP180 6//// T02440128 53006
KMRF 260156Z AUTO 11011KT 10SM CLR 26/12 A3023 RMK AO2 SLP177 T02560122
KMRF 260056Z AUTO 11013KT 10SM CLR 27/11 A3021 RMK AO2 SLP172 T02720111 TSNO
KMRF 252356Z AUTO 10SM BKN070 28/12 A3022 RMK AO2 SLP175 T02830122 10311 20267 56013 $
KMRF 252256Z AUTO 13009KT 10SM BKN075 29/12 A3023 RMK AO2 SLP177 T02890122
KMRF 252156Z AUTO 14007KT 10SM BKN070 OVC090 29/13 A3026 RMK AO2 LTG DSNT SW SLP186 T02940128
KMRF 252056Z AUTO 09007G14KT 060V130 10SM FEW070 BKN100 31/13 A3027 RMK AO2 SLP189 T03060128 56021


Page loaded:  08:38 UTC  |   01:38 AM Pacific  |   02:38 AM Mountain  |   03:38 AM Central  |   04:38 AM Eastern

 

ADVISORIES

FORECASTS

FORECASTS

OBSERVATIONS

USER TOOLS

ABOUT US